Terminal Aerodrome Forecast
Issued by NWS Sterling, VA

Current Version | Previous Version | Graphics & Text | Print | Product List | Glossary On
Versions: 1 2 3 4 5 6 7 8 9 10 11 12 13 14 15 16 17 18 19 20 21
000
FTUS41 KLWX 041738
TAFMRB
TAF
KMRB 041738Z 0418/0518 VRB03KT P6SM SCT050 OVC250
     FM050000 14004KT P6SM -RAPLSN SCT050 OVC090
     FM050600 16007KT P6SM -RA SCT008 OVC010
     FM050900 19007KT P6SM OVC008
     FM051200 21004KT P6SM SCT008 OVC015
     FM051500 29006KT P6SM SCT008 BKN140=

USA.gov is the U.S. government's official web portal to all federal, state and local government web resources and services.